Time;durP1;ratioP1;P1;durP2;ratioP2;P2;SDS_P1;SDS_P2;PMS_P1;PMS_P2;Temp;Humidity;BMP_temperature;BMP_pressure;BME280_temperature;BME280_humidity;BME280_pressure;Samples;Min_cycle;Max_cycle;Signal;HPM_P1;HPM_P2
2021/01/27 00:01:33;;;;;;;16.13;11.55;;;2.90;87.20;;;;;;5093209;28;20145;-80
2021/01/27 00:04:00;;;;;;;16.02;11.70;;;2.90;87.10;;;;;;5089934;28;20111;-78
2021/01/27 00:06:26;;;;;;;20.02;12.55;;;2.90;87.40;;;;;;5091804;28;20024;-78
2021/01/27 00:08:52;;;;;;;16.67;11.63;;;2.80;87.70;;;;;;5093831;28;20052;-80
2021/01/27 00:11:17;;;;;;;18.50;12.02;;;2.80;88.00;;;;;;5093659;28;20056;-79
2021/01/27 00:13:43;;;;;;;16.70;12.25;;;2.80;88.20;;;;;;5093672;28;20024;-79
2021/01/27 00:16:10;;;;;;;17.15;10.80;;;2.80;88.00;;;;;;5093575;28;20016;-79
2021/01/27 00:18:36;;;;;;;15.38;11.50;;;2.80;88.00;;;;;;5077685;28;20024;-79
2021/01/27 00:21:01;;;;;;;14.75;11.75;;;2.90;88.00;;;;;;5093340;28;20454;-79
2021/01/27 00:23:27;;;;;;;15.73;11.73;;;2.90;87.90;;;;;;5093358;28;20024;-77
2021/01/27 00:25:53;;;;;;;15.07;10.55;;;2.90;87.80;;;;;;5090625;28;20031;-81
2021/01/27 00:28:19;;;;;;;15.38;11.35;;;2.90;87.70;;;;;;5093310;28;20077;-79
2021/01/27 00:30:45;;;;;;;12.55;10.15;;;2.90;87.70;;;;;;5093234;28;20396;-82
2021/01/27 00:33:13;;;;;;;14.02;10.60;;;3.00;87.50;;;;;;5093282;28;20380;-79
2021/01/27 00:35:42;;;;;;;13.43;10.02;;;3.00;87.80;;;;;;5088823;28;20358;-80
2021/01/27 00:38:17;;;;;;;12.93;10.43;;;3.00;87.00;;;;;;5084002;28;20023;-81
2021/01/27 00:40:43;;;;;;;14.60;11.00;;;3.00;87.10;;;;;;5091451;28;20020;-80
2021/01/27 00:43:10;;;;;;;19.08;11.82;;;3.00;86.90;;;;;;5092909;28;20081;-80
2021/01/27 00:45:36;;;;;;;14.38;12.68;;;3.00;86.90;;;;;;5091699;28;20066;-80
2021/01/27 00:48:03;;;;;;;16.45;10.75;;;3.00;87.10;;;;;;5092781;28;20077;-79
2021/01/27 00:50:29;;;;;;;13.43;10.65;;;3.00;87.00;;;;;;5091605;28;20350;-79
2021/01/27 00:52:54;;;;;;;12.50;10.05;;;3.00;86.90;;;;;;5080240;28;20126;-79
2021/01/27 00:55:23;;;;;;;13.55;9.77;;;3.00;86.50;;;;;;5092878;28;20036;-79
2021/01/27 00:57:49;;;;;;;13.82;8.77;;;3.00;86.50;;;;;;5092761;28;20077;-79
2021/01/27 01:00:21;;;;;;;10.70;8.35;;;3.00;86.30;;;;;;5092767;28;20019;-79
2021/01/27 01:02:47;;;;;;;10.48;8.25;;;3.00;85.90;;;;;;5101037;28;20077;-79
2021/01/27 01:05:17;;;;;;;12.95;9.52;;;3.00;86.00;;;;;;5092553;28;20021;-80
2021/01/27 01:07:46;;;;;;;11.10;8.65;;;3.00;86.10;;;;;;5090781;28;20024;-79
2021/01/27 01:10:19;;;;;;;10.23;7.35;;;3.00;86.20;;;;;;5092776;28;20024;-78
2021/01/27 01:12:45;;;;;;;10.95;8.73;;;3.00;86.30;;;;;;5092451;28;20456;-79
2021/01/27 01:15:12;;;;;;;14.40;8.45;;;3.00;86.30;;;;;;5092517;28;20031;-78
2021/01/27 01:17:38;;;;;;;11.33;7.73;;;3.00;86.50;;;;;;5092454;28;20029;-78
2021/01/27 01:20:06;;;;;;;9.70;6.68;;;3.00;86.60;;;;;;5091024;28;20036;-79
2021/01/27 01:22:32;;;;;;;10.43;8.68;;;2.90;86.80;;;;;;5092416;28;20057;-79
2021/01/27 01:24:58;;;;;;;13.40;8.27;;;2.80;87.10;;;;;;5091185;28;20448;-80
2021/01/27 01:27:24;;;;;;;10.45;7.88;;;2.80;87.50;;;;;;5092535;28;20385;-79
2021/01/27 01:29:50;;;;;;;8.00;6.47;;;2.80;87.60;;;;;;5092365;28;20020;-79
2021/01/27 01:32:15;;;;;;;8.52;5.95;;;2.80;87.50;;;;;;5092535;28;20103;-79
2021/01/27 01:34:41;;;;;;;8.95;6.55;;;2.70;87.60;;;;;;5086128;28;20028;-81
2021/01/27 01:37:07;;;;;;;7.65;5.10;;;2.70;87.60;;;;;;5076651;28;20024;-77
2021/01/27 01:39:33;;;;;;;9.65;6.75;;;2.70;87.60;;;;;;5085773;28;20012;-77
2021/01/27 01:41:59;;;;;;;7.70;6.22;;;2.70;87.60;;;;;;5093487;28;20104;-79
2021/01/27 01:44:25;;;;;;;9.70;6.07;;;2.70;87.60;;;;;;5096874;28;20044;-79
2021/01/27 01:46:51;;;;;;;8.80;6.05;;;2.70;87.30;;;;;;5092088;28;20027;-79
2021/01/27 01:49:17;;;;;;;8.07;5.85;;;2.70;87.00;;;;;;5092139;28;20103;-79
2021/01/27 01:51:58;;;;;;;7.45;6.03;;;2.70;86.80;;;;;;5074387;28;20544;-78
2021/01/27 01:54:41;;;;;;;9.18;6.55;;;2.80;86.70;;;;;;5091531;28;20038;-79
2021/01/27 01:57:22;;;;;;;8.13;6.65;;;2.80;86.20;;;;;;5090781;28;20478;-79
2021/01/27 01:59:54;;;;;;;7.45;4.72;;;2.80;85.70;;;;;;5092325;28;20463;-78
2021/01/27 02:02:21;;;;;;;8.10;6.20;;;2.90;85.50;;;;;;5092129;28;20077;-79
2021/01/27 02:05:01;;;;;;;6.97;5.63;;;2.90;85.30;;;;;;5092411;28;20104;-79
2021/01/27 02:07:28;;;;;;;6.00;5.10;;;2.90;85.00;;;;;;5085573;28;20036;-79
2021/01/27 02:09:53;;;;;;;9.68;5.07;;;2.90;84.60;;;;;;5092081;28;20039;-80
2021/01/27 02:12:38;;;;;;;5.88;4.93;;;2.90;84.60;;;;;;5092147;28;20421;-79
2021/01/27 02:15:16;;;;;;;6.57;4.68;;;2.90;84.50;;;;;;5092351;28;20477;-80
2021/01/27 02:17:50;;;;;;;5.20;3.55;;;2.80;84.20;;;;;;5091677;28;20524;-77
2021/01/27 02:20:25;;;;;;;8.25;5.47;;;2.80;84.00;;;;;;5092394;28;20051;-77
2021/01/27 02:23:29;;;;;;;6.32;4.43;;;2.80;84.10;;;;;;5095517;28;20038;-78
2021/01/27 02:26:35;;;;;;;8.85;6.13;;;2.80;84.20;;;;;;5094314;28;21010;-79
2021/01/27 02:29:28;;;;;;;7.32;3.95;;;2.80;84.10;;;;;;5085955;28;20065;-77
2021/01/27 02:32:16;;;;;;;7.45;6.15;;;2.80;83.90;;;;;;5095531;28;20385;-78
2021/01/27 02:35:10;;;;;;;7.50;4.40;;;2.80;83.90;;;;;;5101122;28;20024;-78
2021/01/27 02:38:03;;;;;;;7.07;3.83;;;2.80;83.10;;;;;;5095408;28;20016;-79
2021/01/27 02:40:44;;;;;;;6.07;5.03;;;2.80;82.70;;;;;;5095573;28;20395;-77
2021/01/27 02:43:35;;;;;;;5.18;4.22;;;2.80;82.60;;;;;;5095207;28;20024;-77
2021/01/27 02:46:07;;;;;;;4.63;3.40;;;2.80;82.50;;;;;;5095241;28;20388;-79
2021/01/27 02:48:43;;;;;;;7.22;4.85;;;2.80;82.40;;;;;;5095080;28;20012;-79
2021/01/27 02:51:44;;;;;;;5.15;3.95;;;2.80;82.50;;;;;;5087227;28;20027;-80
2021/01/27 02:54:33;;;;;;;5.80;4.95;;;2.80;82.50;;;;;;5092535;28;20023;-78
2021/01/27 02:57:02;;;;;;;5.68;4.50;;;2.80;82.30;;;;;;5095180;28;20024;-80
2021/01/27 03:00:00;;;;;;;5.88;5.07;;;2.80;81.80;;;;;;5094786;28;20020;-79
2021/01/27 03:02:41;;;;;;;6.00;4.65;;;2.80;82.20;;;;;;5093538;28;20031;-79
2021/01/27 03:05:11;;;;;;;6.32;5.22;;;2.80;82.20;;;;;;5094977;28;20366;-79
2021/01/27 03:07:44;;;;;;;7.30;5.35;;;2.90;82.30;;;;;;5094826;28;20488;-78
2021/01/27 03:10:22;;;;;;;5.13;3.80;;;2.90;82.10;;;;;;5095184;28;20032;-78
2021/01/27 03:12:49;;;;;;;7.13;5.40;;;2.90;81.80;;;;;;5094601;28;20145;-79
2021/01/27 03:15:15;;;;;;;;;;;2.90;81.60;;;;;;5095141;28;20346;-77
2021/01/27 03:17:43;;;;;;;6.93;4.85;;;2.90;81.80;;;;;;5094486;28;19908;-77
2021/01/27 03:20:31;;;;;;;5.68;4.30;;;2.80;82.10;;;;;;5094595;28;20039;-80
2021/01/27 03:23:33;;;;;;;5.80;4.18;;;2.70;82.50;;;;;;5094337;28;20032;-78
2021/01/27 03:26:11;;;;;;;4.88;3.28;;;2.70;82.80;;;;;;5080507;28;20034;-80
2021/01/27 03:28:43;;;;;;;3.85;3.42;;;2.70;81.90;;;;;;5094478;28;20035;-80
2021/01/27 03:31:11;;;;;;;5.28;3.75;;;2.70;80.50;;;;;;5098265;28;20123;-78
2021/01/27 03:33:44;;;;;;;6.57;3.60;;;2.70;79.10;;;;;;5104137;28;20038;-79
2021/01/27 03:36:13;;;;;;;4.40;3.20;;;2.70;79.50;;;;;;5109752;28;20114;-79
2021/01/27 03:38:53;;;;;;;6.15;4.28;;;2.70;79.10;;;;;;5105521;28;20042;-79
2021/01/27 03:41:22;;;;;;;3.92;3.05;;;2.70;77.60;;;;;;5094137;28;20032;-79
2021/01/27 03:43:59;;;;;;;4.78;3.78;;;2.70;76.50;;;;;;5085965;28;20017;-80
2021/01/27 03:47:03;;;;;;;3.83;3.00;;;2.70;76.90;;;;;;5092799;28;20028;-79
2021/01/27 03:49:56;;;;;;;3.95;1.85;;;2.70;75.60;;;;;;5087940;28;20036;-77
2021/01/27 03:52:45;;;;;;;4.88;1.90;;;2.70;75.20;;;;;;5093887;28;20024;-80
2021/01/27 03:55:36;;;;;;;2.92;2.58;;;2.70;74.80;;;;;;5094916;28;20015;-82
2021/01/27 03:58:34;;;;;;;5.45;3.42;;;2.70;74.40;;;;;;5090329;28;20043;-82
2021/01/27 04:01:12;;;;;;;4.03;2.83;;;2.70;73.50;;;;;;5087695;28;20028;-83
2021/01/27 04:03:39;;;;;;;3.28;2.38;;;2.70;72.40;;;;;;5100293;28;20405;-85
2021/01/27 04:06:08;;;;;;;3.70;2.33;;;2.70;70.90;;;;;;5091489;28;20052;-85
2021/01/27 04:08:34;;;;;;;2.38;1.88;;;2.60;70.30;;;;;;5102926;28;21493;-83
2021/01/27 04:11:01;;;;;;;5.60;2.87;;;2.60;70.50;;;;;;5099737;28;20054;-86
2021/01/27 04:13:29;;;;;;;3.63;2.80;;;2.60;70.90;;;;;;5101635;28;20035;-83
2021/01/27 04:15:55;;;;;;;5.47;2.90;;;2.60;71.10;;;;;;5111927;28;20024;-84
2021/01/27 04:18:21;;;;;;;4.70;2.58;;;2.60;70.90;;;;;;5091204;28;20024;-81
2021/01/27 04:20:47;;;;;;;4.20;2.38;;;2.60;71.40;;;;;;5092586;28;20569;-84
2021/01/27 04:23:13;;;;;;;3.45;2.50;;;2.60;70.60;;;;;;5083808;28;20046;-85
2021/01/27 04:25:39;;;;;;;5.30;3.05;;;2.60;71.20;;;;;;5101283;28;20028;-83
2021/01/27 04:28:05;;;;;;;2.85;2.45;;;2.60;71.40;;;;;;5094693;28;20064;-86
2021/01/27 04:30:33;;;;;;;4.05;2.55;;;2.60;71.10;;;;;;5110658;28;20564;-83
2021/01/27 04:33:01;;;;;;;3.50;2.60;;;2.70;71.50;;;;;;5101099;28;20024;-79
2021/01/27 04:35:27;;;;;;;;;;;2.60;69.70;;;;;;5091901;28;20026;-81
2021/01/27 04:37:53;;;;;;;4.22;2.63;;;2.70;70.70;;;;;;5096226;28;19908;-83
2021/01/27 04:40:35;;;;;;;3.60;2.17;;;2.60;70.70;;;;;;5091888;28;20047;-82
2021/01/27 04:43:03;;;;;;;4.20;2.53;;;2.60;70.00;;;;;;5093970;28;20105;-83
2021/01/27 04:45:29;;;;;;;3.28;2.65;;;2.60;70.60;;;;;;5096274;28;20058;-82
2021/01/27 04:48:10;;;;;;;3.25;2.42;;;2.60;70.10;;;;;;5098190;28;20024;-84
2021/01/27 04:50:49;;;;;;;4.82;2.72;;;2.60;70.20;;;;;;5092268;28;20012;-82
2021/01/27 04:53:39;;;;;;;3.33;2.70;;;2.60;70.30;;;;;;5093134;28;20027;-81
2021/01/27 04:56:53;;;;;;;3.75;2.67;;;2.60;70.10;;;;;;5091513;28;20043;-85
2021/01/27 04:59:44;;;;;;;5.43;3.58;;;2.60;70.30;;;;;;5057145;28;20435;-82
2021/01/27 05:02:13;;;;;;;3.45;2.70;;;2.60;70.50;;;;;;5047080;28;20049;-81
2021/01/27 05:04:44;;;;;;;4.90;3.03;;;2.60;70.30;;;;;;5092703;28;20039;-83
2021/01/27 05:07:14;;;;;;;4.38;2.90;;;2.60;70.60;;;;;;5093253;28;20508;-82
2021/01/27 05:09:41;;;;;;;4.70;2.90;;;2.60;70.00;;;;;;5093348;28;20024;-86
2021/01/27 05:12:09;;;;;;;4.55;2.70;;;2.60;70.20;;;;;;5092251;28;20473;-84
2021/01/27 05:14:35;;;;;;;;;;;2.60;69.70;;;;;;5092884;28;20532;-82
2021/01/27 05:17:10;;;;;;;5.25;2.55;;;2.60;69.80;;;;;;5093913;28;19955;-83
2021/01/27 05:19:39;;;;;;;3.88;2.88;;;2.60;69.90;;;;;;5091539;28;20024;-82
2021/01/27 05:22:08;;;;;;;3.65;2.83;;;2.60;69.90;;;;;;5091205;28;20040;-83
2021/01/27 05:24:34;;;;;;;4.60;3.22;;;2.60;69.70;;;;;;5092765;28;20422;-79
2021/01/27 05:27:04;;;;;;;3.45;2.40;;;2.60;70.10;;;;;;5092137;28;20020;-81
2021/01/27 05:29:37;;;;;;;5.20;2.22;;;2.60;70.00;;;;;;5092126;28;20016;-81
2021/01/27 05:32:18;;;;;;;5.13;3.75;;;2.60;69.70;;;;;;5093360;28;20016;-82
2021/01/27 05:34:47;;;;;;;5.15;3.60;;;2.60;70.50;;;;;;5091134;28;20115;-81
2021/01/27 05:37:20;;;;;;;5.70;2.38;;;2.60;70.70;;;;;;5078905;28;20047;-81
2021/01/27 05:39:49;;;;;;;7.53;4.00;;;2.60;70.10;;;;;;5092913;28;20103;-83
2021/01/27 05:42:30;;;;;;;6.80;4.32;;;2.60;70.50;;;;;;5091285;28;20032;-82
2021/01/27 05:45:17;;;;;;;7.47;4.22;;;2.60;70.80;;;;;;5091132;28;20115;-84
2021/01/27 05:47:43;;;;;;;5.85;3.53;;;2.60;70.80;;;;;;5092132;28;20031;-84
2021/01/27 05:50:32;;;;;;;5.03;3.60;;;2.60;71.30;;;;;;5092649;28;20024;-82
2021/01/27 05:53:17;;;;;;;4.50;3.13;;;2.70;71.20;;;;;;5080564;28;20024;-83
2021/01/27 05:56:02;;;;;;;5.45;3.58;;;2.70;71.10;;;;;;5096961;28;20043;-81
2021/01/27 05:58:34;;;;;;;5.25;3.50;;;2.70;70.80;;;;;;5096971;28;20078;-83
2021/01/27 06:01:21;;;;;;;2.97;2.65;;;2.60;70.30;;;;;;5096861;28;20552;-83
2021/01/27 06:04:07;;;;;;;;;;;2.60;70.80;;;;;;5102864;28;20032;-82
2021/01/27 06:06:35;;;;;;;6.32;3.83;;;2.60;70.80;;;;;;5096472;28;19912;-83
2021/01/27 06:09:03;;;;;;;5.38;3.28;;;2.60;71.20;;;;;;5096723;28;20024;-83
2021/01/27 06:11:29;;;;;;;6.00;3.65;;;2.60;71.30;;;;;;5096219;28;20027;-83
2021/01/27 06:14:11;;;;;;;4.32;2.63;;;2.60;71.00;;;;;;5094819;28;20024;-82
2021/01/27 06:16:43;;;;;;;5.68;2.97;;;2.60;70.90;;;;;;5082274;28;20016;-83
2021/01/27 06:19:14;;;;;;;5.22;3.58;;;2.60;70.90;;;;;;5094807;28;20039;-81
2021/01/27 06:22:01;;;;;;;4.88;3.50;;;2.60;71.80;;;;;;5094231;28;20054;-83
2021/01/27 06:24:52;;;;;;;6.50;3.55;;;2.60;71.30;;;;;;5095743;28;20407;-81
2021/01/27 06:27:37;;;;;;;7.13;2.53;;;2.60;71.30;;;;;;5095536;28;20028;-82
2021/01/27 06:30:13;;;;;;;6.47;3.08;;;2.60;70.70;;;;;;5095735;28;20044;-83
2021/01/27 06:32:47;;;;;;;3.23;2.37;;;2.60;71.10;;;;;;5095518;28;20038;-83
2021/01/27 06:35:38;;;;;;;5.53;3.88;;;2.60;71.30;;;;;;5098938;28;20065;-83
2021/01/27 06:38:06;;;;;;;4.53;3.33;;;2.60;71.50;;;;;;5100121;28;20028;-84
2021/01/27 06:40:32;;;;;;;3.97;2.65;;;2.60;71.00;;;;;;5095527;28;20069;-82
2021/01/27 06:43:16;;;;;;;6.65;3.75;;;2.60;71.00;;;;;;5095610;28;20439;-82
2021/01/27 06:45:48;;;;;;;4.43;3.03;;;2.50;71.20;;;;;;5084519;28;20358;-80
2021/01/27 06:48:32;;;;;;;5.78;3.38;;;2.60;71.60;;;;;;5095642;28;20042;-82
2021/01/27 06:51:20;;;;;;;5.93;3.40;;;2.60;71.70;;;;;;5095191;28;20536;-81
2021/01/27 06:54:14;;;;;;;5.18;3.67;;;2.60;71.80;;;;;;5095225;28;20099;-82
2021/01/27 06:56:53;;;;;;;4.68;3.15;;;2.60;71.80;;;;;;5087562;28;20093;-82
2021/01/27 06:59:40;;;;;;;5.68;3.38;;;2.60;71.60;;;;;;5094779;28;20017;-81
2021/01/27 07:02:30;;;;;;;5.63;3.10;;;2.60;71.50;;;;;;5094912;28;20160;-81
2021/01/27 07:05:12;;;;;;;3.65;2.90;;;2.50;71.70;;;;;;5082631;28;20038;-82
2021/01/27 07:07:42;;;;;;;4.30;2.85;;;2.50;71.70;;;;;;5095001;28;20023;-82
2021/01/27 07:10:36;;;;;;;6.05;3.45;;;2.50;71.80;;;;;;5095416;28;20023;-83
2021/01/27 07:13:08;;;;;;;4.72;2.40;;;2.50;71.90;;;;;;5095505;28;20016;-82
2021/01/27 07:15:47;;;;;;;4.05;3.40;;;2.60;71.80;;;;;;5095238;28;20020;-81
2021/01/27 07:18:35;;;;;;;4.35;2.78;;;2.60;72.00;;;;;;5094168;28;20020;-82
2021/01/27 07:21:10;;;;;;;5.90;2.90;;;2.60;71.90;;;;;;5094555;28;20048;-83
2021/01/27 07:23:53;;;;;;;5.93;2.92;;;2.60;71.70;;;;;;5094740;28;20024;-82
2021/01/27 07:26:47;;;;;;;3.20;2.50;;;2.60;72.10;;;;;;5095259;28;20081;-82
2021/01/27 07:29:36;;;;;;;3.42;2.05;;;2.60;71.60;;;;;;5096392;28;20024;-82
2021/01/27 07:32:24;;;;;;;4.43;3.10;;;2.60;71.80;;;;;;5095308;28;20469;-82
2021/01/27 07:34:59;;;;;;;5.47;3.45;;;2.60;71.90;;;;;;5080330;28;20039;-82
2021/01/27 07:37:40;;;;;;;5.00;2.97;;;2.60;71.70;;;;;;5112524;28;20099;-81
2021/01/27 07:40:27;;;;;;;5.32;3.15;;;2.70;71.60;;;;;;5101830;28;20034;-83
2021/01/27 07:43:19;;;;;;;5.95;3.80;;;2.70;71.60;;;;;;5095659;28;20032;-84
2021/01/27 07:45:52;;;;;;;4.38;2.65;;;2.70;71.50;;;;;;5080433;28;20026;-81
2021/01/27 07:48:32;;;;;;;4.47;3.25;;;2.80;71.30;;;;;;5094751;28;20031;-83
2021/01/27 07:51:08;;;;;;;4.95;3.35;;;2.90;71.70;;;;;;5094903;28;20376;-82
2021/01/27 07:53:38;;;;;;;5.43;2.95;;;3.00;71.50;;;;;;5094697;28;20512;-82
2021/01/27 07:56:18;;;;;;;4.55;2.80;;;3.10;71.20;;;;;;5094156;28;20066;-83
2021/01/27 07:59:18;;;;;;;4.50;2.70;;;3.10;71.00;;;;;;5094308;28;20482;-81
2021/01/27 08:01:54;;;;;;;5.18;3.10;;;3.00;70.70;;;;;;5079444;28;20410;-82
2021/01/27 08:04:31;;;;;;;3.22;2.58;;;3.10;70.70;;;;;;5095051;28;20008;-83
2021/01/27 08:06:58;;;;;;;6.90;2.88;;;3.10;70.60;;;;;;5096764;28;20054;-85
2021/01/27 08:09:37;;;;;;;4.57;3.27;;;3.10;70.50;;;;;;5095818;28;20096;-82
2021/01/27 08:12:27;;;;;;;1.92;1.67;;;3.20;70.60;;;;;;5094586;28;20280;-84
2021/01/27 08:15:25;;;;;;;4.30;3.30;;;3.20;70.00;;;;;;5093918;28;20072;-82
2021/01/27 08:17:59;;;;;;;5.60;3.03;;;3.10;70.10;;;;;;5060492;28;20487;-81
2021/01/27 08:20:58;;;;;;;3.20;2.42;;;3.20;70.50;;;;;;5093659;28;20089;-83
2021/01/27 08:23:24;;;;;;;6.82;3.17;;;3.20;70.10;;;;;;5093707;28;20366;-82
2021/01/27 08:26:01;;;;;;;4.50;3.00;;;3.30;70.40;;;;;;5093446;28;20038;-83
2021/01/27 08:28:36;;;;;;;;;;;3.30;69.90;;;;;;5092476;28;20028;-82
2021/01/27 08:31:08;;;;;;;6.00;3.15;;;3.30;69.40;;;;;;5093383;28;19947;-82
2021/01/27 08:33:56;;;;;;;4.70;3.30;;;3.30;70.00;;;;;;5094309;28;20040;-83
2021/01/27 08:36:47;;;;;;;4.40;2.58;;;3.30;70.30;;;;;;5098547;28;20024;-82
2021/01/27 08:39:24;;;;;;;2.90;2.08;;;3.30;69.60;;;;;;5062072;28;20039;-83
2021/01/27 08:42:03;;;;;;;3.17;2.13;;;3.30;69.70;;;;;;5093099;28;20098;-82
2021/01/27 08:44:34;;;;;;;4.25;2.70;;;3.30;69.60;;;;;;5093456;28;20039;-82
2021/01/27 08:47:03;;;;;;;5.50;2.90;;;3.30;69.70;;;;;;5091462;28;20023;-82
2021/01/27 08:49:37;;;;;;;4.70;2.35;;;3.30;70.00;;;;;;5092697;28;20103;-84
2021/01/27 08:52:09;;;;;;;3.70;2.53;;;3.30;69.80;;;;;;5093008;28;20024;-82
2021/01/27 08:54:35;;;;;;;3.40;2.42;;;3.20;69.90;;;;;;5093345;28;20022;-81
2021/01/27 08:57:22;;;;;;;6.63;3.10;;;3.20;69.90;;;;;;5091890;28;20106;-82
2021/01/27 09:00:03;;;;;;;4.00;2.47;;;3.20;70.30;;;;;;5080735;28;20027;-82
2021/01/27 09:02:59;;;;;;;5.15;2.88;;;3.20;70.10;;;;;;5093084;28;20115;-81
2021/01/27 09:05:28;;;;;;;3.83;2.88;;;3.20;70.20;;;;;;5092867;28;20366;-83
2021/01/27 09:08:11;;;;;;;6.10;3.30;;;3.20;70.30;;;;;;5091491;28;20102;-83
2021/01/27 09:10:52;;;;;;;3.83;2.67;;;3.30;70.90;;;;;;5091695;28;20036;-83
2021/01/27 09:13:33;;;;;;;2.78;2.17;;;3.30;70.10;;;;;;5078385;28;20016;-83
2021/01/27 09:16:18;;;;;;;4.10;3.03;;;3.20;70.30;;;;;;5091186;28;20039;-83
2021/01/27 09:19:16;;;;;;;6.13;3.33;;;3.20;70.80;;;;;;5093382;28;20513;-82
2021/01/27 09:21:43;;;;;;;5.57;3.22;;;3.30;70.70;;;;;;5081813;28;20530;-82
2021/01/27 09:24:36;;;;;;;4.60;3.45;;;3.30;70.50;;;;;;5092715;28;20045;-82
2021/01/27 09:27:14;;;;;;;6.68;2.90;;;3.30;70.60;;;;;;5080335;28;20028;-85
2021/01/27 09:29:40;;;;;;;3.47;2.38;;;3.30;70.50;;;;;;5092138;28;20016;-83
2021/01/27 09:32:17;;;;;;;4.20;2.70;;;3.30;70.30;;;;;;5092558;28;20027;-83
2021/01/27 09:34:45;;;;;;;3.22;2.40;;;3.30;70.30;;;;;;5092248;28;20491;-82
2021/01/27 09:37:21;;;;;;;5.60;2.65;;;3.30;70.40;;;;;;5104721;28;20116;-84
2021/01/27 09:40:06;;;;;;;5.82;3.55;;;3.30;70.10;;;;;;5091599;28;20050;-83
2021/01/27 09:42:31;;;;;;;4.80;2.92;;;3.30;70.40;;;;;;5091946;28;20404;-82
2021/01/27 09:45:07;;;;;;;6.28;3.60;;;3.40;70.60;;;;;;5091556;28;20039;-80
2021/01/27 09:47:37;;;;;;;6.35;2.53;;;3.40;70.00;;;;;;5092732;28;20024;-82
2021/01/27 09:50:04;;;;;;;4.18;3.10;;;3.30;70.10;;;;;;5093460;28;20029;-81
2021/01/27 09:52:32;;;;;;;4.60;2.53;;;3.30;70.40;;;;;;5093195;28;20039;-84
2021/01/27 09:55:09;;;;;;;4.00;3.15;;;3.30;70.50;;;;;;5093784;28;20295;-84
2021/01/27 09:57:38;;;;;;;3.58;2.33;;;3.30;70.70;;;;;;5099257;28;20031;-83
2021/01/27 10:00:08;;;;;;;3.60;2.42;;;3.20;70.30;;;;;;5103072;28;20042;-84
2021/01/27 10:02:35;;;;;;;3.08;1.90;;;3.20;70.20;;;;;;5091843;28;20063;-82
2021/01/27 10:05:26;;;;;;;3.72;2.58;;;3.20;70.50;;;;;;5094525;28;20020;-81
2021/01/27 10:07:52;;;;;;;4.97;2.38;;;3.20;70.00;;;;;;5096191;28;20035;-82
2021/01/27 10:10:21;;;;;;;4.25;2.72;;;3.20;70.30;;;;;;5094515;28;20028;-83
2021/01/27 10:12:47;;;;;;;4.63;2.90;;;3.20;70.50;;;;;;5098010;28;20105;-82
2021/01/27 10:15:32;;;;;;;5.75;3.05;;;3.20;70.80;;;;;;5100154;28;20020;-82
2021/01/27 10:18:24;;;;;;;5.32;2.70;;;3.30;70.80;;;;;;5106263;28;20020;-83
2021/01/27 10:20:49;;;;;;;4.75;3.15;;;3.30;69.80;;;;;;5100213;28;20040;-85
2021/01/27 10:23:43;;;;;;;4.38;2.72;;;3.20;70.10;;;;;;5092197;28;20481;-83
2021/01/27 10:26:23;;;;;;;3.20;2.35;;;3.30;70.30;;;;;;5092735;28;20452;-83
2021/01/27 10:29:22;;;;;;;5.68;3.25;;;3.30;70.10;;;;;;5092537;28;20028;-84
2021/01/27 10:32:46;;;;;;;;;;;;;;;;;;;;;
2021/01/27 10:35:40;;;;;;;7.18;3.33;;;3.40;69.70;;;;;;5098273;28;20432;-84
2021/01/27 10:38:06;;;;;;;6.80;4.72;;;3.30;69.70;;;;;;5102856;28;20028;-83
2021/01/27 10:40:47;;;;;;;3.15;2.55;;;3.40;70.10;;;;;;5099414;28;20083;-82
2021/01/27 10:43:16;;;;;;;4.03;3.03;;;3.40;69.60;;;;;;5096714;28;20043;-85
2021/01/27 10:49:14;;;;;;;3.53;2.45;;;3.40;69.80;;;;;;5071938;28;20753;-83
2021/01/27 10:52:14;;;;;;;3.25;2.13;;;3.40;69.80;;;;;;5094683;28;20020;-84
2021/01/27 10:54:40;;;;;;;6.28;4.15;;;3.40;69.20;;;;;;5095398;28;20020;-83
2021/01/27 10:57:32;;;;;;;5.40;3.58;;;3.30;70.10;;;;;;5095524;28;20040;-84
2021/01/27 10:59:57;;;;;;;4.90;2.67;;;3.40;70.30;;;;;;5080678;28;20062;-81
2021/01/27 11:02:23;;;;;;;4.43;2.85;;;3.40;70.30;;;;;;5095287;28;20528;-82
2021/01/27 11:04:49;;;;;;;4.97;2.33;;;3.50;70.40;;;;;;5095752;28;20024;-81
2021/01/27 11:07:19;;;;;;;12.32;5.07;;;3.50;70.30;;;;;;5096174;28;20026;-83
2021/01/27 11:09:48;;;;;;;4.97;2.53;;;3.50;70.30;;;;;;5096349;28;20138;-84
2021/01/27 11:12:14;;;;;;;2.58;2.30;;;3.50;69.80;;;;;;5095829;28;20031;-83
2021/01/27 11:14:39;;;;;;;7.70;3.33;;;3.50;69.40;;;;;;5093616;28;20012;-84
2021/01/27 11:17:08;;;;;;;4.25;2.55;;;3.50;69.60;;;;;;5095078;28;20397;-84
2021/01/27 11:19:34;;;;;;;5.25;3.05;;;3.50;69.80;;;;;;5094905;28;20016;-85
2021/01/27 11:22:00;;;;;;;3.67;2.30;;;3.50;69.70;;;;;;5093635;28;20032;-81
2021/01/27 11:24:26;;;;;;;5.55;2.50;;;3.50;69.10;;;;;;5094245;28;20472;-81
2021/01/27 11:26:52;;;;;;;3.05;2.00;;;3.50;69.50;;;;;;5095444;28;20099;-82
2021/01/27 11:29:18;;;;;;;5.32;2.45;;;3.50;69.50;;;;;;5094554;28;20495;-82
2021/01/27 11:31:44;;;;;;;4.15;2.92;;;3.40;69.60;;;;;;5094250;28;20062;-82
2021/01/27 11:34:10;;;;;;;7.35;3.83;;;3.40;69.90;;;;;;5094658;28;20024;-84
2021/01/27 11:36:36;;;;;;;4.07;2.33;;;3.40;70.00;;;;;;5106865;28;20047;-82
2021/01/27 11:39:03;;;;;;;3.88;2.20;;;3.40;69.60;;;;;;5094435;28;20027;-83
2021/01/27 11:41:29;;;;;;;5.60;2.85;;;3.50;70.50;;;;;;5093112;28;20027;-83
2021/01/27 11:43:55;;;;;;;4.13;2.10;;;3.50;69.90;;;;;;5094501;28;20028;-82
2021/01/27 11:46:21;;;;;;;7.70;3.72;;;3.50;69.60;;;;;;5094302;28;20123;-84
2021/01/27 11:48:47;;;;;;;4.68;2.72;;;3.50;69.70;;;;;;5095929;28;20377;-82
2021/01/27 11:51:14;;;;;;;2.72;1.95;;;3.50;69.20;;;;;;5094216;28;20457;-84
2021/01/27 11:53:40;;;;;;;6.83;2.77;;;3.50;69.10;;;;;;5094726;28;20012;-83
2021/01/27 11:56:08;;;;;;;5.32;3.55;;;3.50;69.20;;;;;;5094767;28;20265;-84
2021/01/27 11:58:35;;;;;;;;;;;3.50;69.30;;;;;;5093892;28;20358;-82
2021/01/27 12:01:01;;;;;;;2.50;2.30;;;3.50;69.60;;;;;;5097737;28;19908;-81
2021/01/27 12:03:27;;;;;;;3.05;2.17;;;3.50;69.10;;;;;;5095759;28;20031;-85
2021/01/27 12:05:53;;;;;;;3.70;2.38;;;3.50;69.20;;;;;;5097624;28;20024;-83
2021/01/27 12:08:19;;;;;;;4.22;2.38;;;3.50;69.10;;;;;;5100205;28;20038;-85
2021/01/27 12:10:47;;;;;;;3.63;2.03;;;3.50;69.50;;;;;;5098854;28;20027;-84
2021/01/27 12:13:14;;;;;;;5.88;2.30;;;3.50;69.50;;;;;;5094814;28;20146;-84
2021/01/27 12:15:43;;;;;;;2.97;2.30;;;3.60;69.50;;;;;;5094347;28;20102;-84
2021/01/27 12:18:11;;;;;;;4.03;2.53;;;3.60;69.50;;;;;;5092357;28;20397;-82
2021/01/27 12:20:38;;;;;;;4.55;2.70;;;3.60;69.50;;;;;;5093958;28;20073;-83
2021/01/27 12:23:04;;;;;;;5.63;2.95;;;3.60;69.40;;;;;;5093871;28;20495;-83
2021/01/27 12:25:30;;;;;;;6.03;2.83;;;3.60;69.40;;;;;;5094356;28;20031;-83
2021/01/27 12:27:56;;;;;;;3.10;2.47;;;3.60;69.50;;;;;;5094757;28;20481;-82
2021/01/27 12:30:24;;;;;;;4.35;2.30;;;3.60;69.10;;;;;;5095285;28;20038;-84
2021/01/27 12:32:50;;;;;;;3.88;2.40;;;3.60;69.20;;;;;;5094605;28;20046;-84
2021/01/27 12:35:17;;;;;;;4.18;3.42;;;3.60;69.40;;;;;;5098180;28;20011;-82
2021/01/27 12:38:08;;;;;;;4.15;2.40;;;3.70;69.60;;;;;;5101497;28;20027;-85
2021/01/27 12:40:34;;;;;;;3.20;2.22;;;3.70;69.40;;;;;;5091393;28;20370;-84
2021/01/27 12:42:59;;;;;;;3.13;2.13;;;3.60;68.70;;;;;;5093586;28;20108;-84
2021/01/27 12:45:28;;;;;;;4.38;1.98;;;3.60;69.00;;;;;;5093633;28;20020;-84
2021/01/27 12:47:54;;;;;;;3.35;2.47;;;3.50;68.90;;;;;;5093933;28;20056;-83
2021/01/27 12:50:21;;;;;;;3.67;2.40;;;3.50;69.20;;;;;;5093279;28;20020;-81
2021/01/27 12:52:48;;;;;;;3.00;2.20;;;3.50;69.40;;;;;;5092540;28;20053;-82
2021/01/27 12:55:16;;;;;;;4.32;2.88;;;3.50;69.40;;;;;;5092448;28;20032;-81
2021/01/27 12:57:44;;;;;;;2.45;1.67;;;3.50;69.40;;;;;;5093006;28;20080;-83
2021/01/27 13:00:20;;;;;;;3.90;2.60;;;3.60;69.10;;;;;;5095088;28;20148;-80
2021/01/27 13:02:48;;;;;;;3.47;2.47;;;3.50;69.20;;;;;;5102192;28;20118;-83
2021/01/27 13:05:15;;;;;;;5.10;2.40;;;3.50;69.40;;;;;;5092081;28;20043;-83
2021/01/27 13:07:41;;;;;;;4.85;2.55;;;3.60;69.50;;;;;;5092191;28;20438;-83
2021/01/27 13:10:11;;;;;;;4.25;2.15;;;3.60;69.50;;;;;;5092112;28;20039;-83
2021/01/27 13:12:38;;;;;;;3.95;2.00;;;3.60;69.50;;;;;;5092140;28;20020;-83
2021/01/27 13:15:07;;;;;;;6.60;3.03;;;3.50;68.60;;;;;;5093165;28;20016;-84
2021/01/27 13:17:33;;;;;;;2.92;2.42;;;3.40;68.90;;;;;;5092787;28;20108;-81
2021/01/27 13:19:59;;;;;;;3.95;2.42;;;3.40;68.90;;;;;;5091270;28;20086;-83
2021/01/27 13:22:25;;;;;;;5.53;2.97;;;3.40;69.20;;;;;;5093950;28;20059;-82
2021/01/27 13:25:03;;;;;;;3.42;2.08;;;3.40;69.40;;;;;;5093010;28;20048;-82
2021/01/27 13:27:29;;;;;;;2.58;1.95;;;3.40;69.40;;;;;;5092017;28;20028;-82
2021/01/27 13:29:55;;;;;;;2.97;2.38;;;3.30;69.40;;;;;;5091214;28;20027;-82
2021/01/27 13:32:21;;;;;;;3.08;2.10;;;3.30;69.60;;;;;;5091579;28;20064;-83
2021/01/27 13:34:47;;;;;;;4.97;2.20;;;3.30;69.50;;;;;;5091615;28;20031;-82
2021/01/27 13:37:15;;;;;;;5.20;3.22;;;3.20;69.60;;;;;;5081581;28;20020;-83
2021/01/27 13:39:45;;;;;;;4.55;2.25;;;3.20;70.10;;;;;;5099242;28;20059;-85